createdAt,value
2022-08-07T00:01:12.578Z,15.50
2022-08-07T00:06:29.499Z,18.23
2022-08-07T00:11:47.822Z,19.98
2022-08-07T00:16:57.147Z,18.52
2022-08-07T00:22:02.111Z,22.05
2022-08-07T00:27:07.797Z,19.40
2022-08-07T00:32:13.632Z,16.45
2022-08-07T00:37:16.210Z,16.17
2022-08-07T00:42:20.547Z,16.17
2022-08-07T00:48:08.218Z,15.68
2022-08-07T00:52:54.571Z,14.93
2022-08-07T00:57:57.870Z,17.50
2022-08-07T01:03:00.461Z,22.63
2022-08-07T01:08:03.863Z,23.27
2022-08-07T01:13:07.108Z,26.45
2022-08-07T01:18:09.737Z,24.33
2022-08-07T01:23:16.553Z,25.85
2022-08-07T01:28:28.987Z,21.70
2022-08-07T01:33:55.191Z,25.50
2022-08-07T01:38:59.002Z,23.98
2022-08-07T01:44:03.505Z,26.23
2022-08-07T01:49:11.894Z,18.52
2022-08-07T01:54:36.438Z,21.13
2022-08-07T01:59:47.152Z,20.80
2022-08-07T02:04:58.398Z,26.05
2022-08-07T02:10:08.791Z,23.67
2022-08-07T02:15:22.974Z,23.38
2022-08-07T02:20:28.952Z,21.45
2022-08-07T02:26:31.202Z,20.48
2022-08-07T02:31:28.492Z,21.80
2022-08-07T02:36:31.790Z,21.70
2022-08-07T02:41:50.481Z,22.85
2022-08-07T02:47:00.895Z,20.08
2022-08-07T02:52:10.636Z,18.85
2022-08-07T02:57:19.678Z,17.52
2022-08-07T03:02:25.495Z,26.00
2022-08-07T03:08:05.262Z,23.02
2022-08-07T03:12:57.785Z,22.02
2022-08-07T03:18:05.976Z,19.85
2022-08-07T03:23:19.165Z,22.48
2022-08-07T03:28:37.486Z,18.95
2022-08-07T03:33:43.285Z,17.92
2022-08-07T03:38:48.355Z,19.15
2022-08-07T03:43:57.238Z,18.90
2022-08-07T03:49:04.668Z,23.25
2022-08-07T03:54:35.191Z,31.90
2022-08-07T04:00:01.283Z,36.45
2022-08-07T04:05:05.456Z,33.75
2022-08-07T04:10:15.393Z,32.85
2022-08-07T04:15:23.931Z,27.02
2022-08-07T04:20:29.343Z,26.05
2022-08-07T04:25:39.152Z,24.70
2022-08-07T04:30:57.157Z,28.45
2022-08-07T04:36:09.316Z,22.92
2022-08-07T04:41:19.201Z,22.10
2022-08-07T04:46:40.012Z,28.35
2022-08-07T04:52:07.915Z,19.27
2022-08-07T04:58:13.687Z,16.60
2022-08-07T05:02:52.187Z,15.73
2022-08-07T05:08:00.765Z,19.23
2022-08-07T05:14:44.753Z,16.48
2022-08-07T05:18:35.633Z,16.42
2022-08-07T05:23:41.971Z,15.38
2022-08-07T05:28:50.323Z,16.30
2022-08-07T05:34:04.934Z,14.60
2022-08-07T05:40:07.141Z,18.45
2022-08-07T05:44:46.492Z,15.90
2022-08-07T05:49:57.605Z,15.90
2022-08-07T05:55:10.463Z,15.10
2022-08-07T06:00:19.312Z,14.75
2022-08-07T06:05:32.870Z,16.13
2022-08-07T06:10:43.633Z,13.70
2022-08-07T06:15:49.908Z,17.02
2022-08-07T06:22:15.860Z,12.88
2022-08-07T06:26:27.451Z,15.55
2022-08-07T06:31:46.951Z,12.75
2022-08-07T06:36:55.267Z,17.00
2022-08-07T06:42:07.660Z,16.02
2022-08-07T06:47:48.323Z,14.05
2022-08-07T06:54:11.718Z,13.10
2022-08-07T06:58:34.499Z,15.23
2022-08-07T07:03:48.853Z,13.60
2022-08-07T07:08:54.394Z,13.68
2022-08-07T07:14:02.209Z,15.93
2022-08-07T07:19:54.364Z,16.08
2022-08-07T07:24:32.153Z,16.50
2022-08-07T07:29:56.217Z,14.32
2022-08-07T07:35:03.956Z,9.93
2022-08-07T07:40:15.561Z,11.10
2022-08-07T07:45:22.801Z,11.77
2022-08-07T07:50:46.676Z,9.70
2022-08-07T07:56:00.669Z,14.00
2022-08-07T08:02:01.530Z,21.00
2022-08-07T08:06:29.038Z,11.05
2022-08-07T08:11:59.250Z,9.65
2022-08-07T08:17:56.447Z,13.43
2022-08-07T08:22:55.707Z,11.38
2022-08-07T08:28:03.920Z,10.38
2022-08-07T08:33:10.305Z,13.15
2022-08-07T08:38:21.601Z,10.93
2022-08-07T08:43:42.031Z,10.35
2022-08-07T08:48:54.516Z,9.55
2022-08-07T08:54:04.597Z,11.35
2022-08-07T08:59:17.260Z,11.05
2022-08-07T09:04:30.391Z,9.25
2022-08-07T09:09:47.737Z,8.48
2022-08-07T09:16:24.255Z,7.88
2022-08-07T09:20:35.244Z,9.15
2022-08-07T09:25:54.493Z,9.05
2022-08-07T09:31:03.944Z,10.27
2022-08-07T09:36:15.220Z,9.40
2022-08-07T09:41:28.565Z,14.57
2022-08-07T09:47:51.361Z,12.27
2022-08-07T09:52:35.462Z,7.93
2022-08-07T09:58:16.732Z,8.73
2022-08-07T10:04:06.114Z,6.57
2022-08-07T10:09:42.951Z,6.90
2022-08-07T10:15:15.345Z,9.90
2022-08-07T10:20:39.335Z,6.03
2022-08-07T10:26:01.567Z,9.20
2022-08-07T10:31:20.076Z,5.95
2022-08-07T10:36:38.896Z,5.47
2022-08-07T10:41:53.271Z,7.70
2022-08-07T10:47:26.636Z,5.57
2022-08-07T10:52:42.654Z,4.47
2022-08-07T10:58:03.864Z,7.32
2022-08-07T11:03:15.483Z,5.03
2022-08-07T11:08:32.524Z,3.97
2022-08-07T11:14:42.685Z,4.97
2022-08-07T11:19:10.167Z,5.93
2022-08-07T11:24:22.080Z,3.70
2022-08-07T11:29:42.925Z,6.90
2022-08-07T11:34:50.952Z,6.50
2022-08-07T11:40:11.298Z,6.97
2022-08-07T11:45:35.406Z,3.53
2022-08-07T11:50:57.906Z,3.35
2022-08-07T11:56:26.659Z,7.05
2022-08-07T12:02:00.998Z,5.00
2022-08-07T12:07:20.233Z,9.95
2022-08-07T12:12:37.994Z,4.63
2022-08-07T12:17:58.962Z,4.63
2022-08-07T12:24:06.129Z,4.55
2022-08-07T12:28:53.885Z,4.88
2022-08-07T12:34:01.796Z,3.97
2022-08-07T12:39:09.493Z,4.25
2022-08-07T12:44:32.894Z,7.00
2022-08-07T12:49:51.715Z,3.28
2022-08-07T12:55:05.221Z,3.35
2022-08-07T13:00:20.997Z,5.68
2022-08-07T13:06:04.081Z,2.55
2022-08-07T13:11:24.751Z,5.63
2022-08-07T13:16:37.737Z,4.00
2022-08-07T13:21:54.951Z,5.57
2022-08-07T13:27:13.459Z,5.00
2022-08-07T13:32:32.368Z,3.03
2022-08-07T13:37:55.513Z,4.47
2022-08-07T13:43:05.658Z,6.03
2022-08-07T13:48:27.416Z,5.07
2022-08-07T13:54:00.516Z,6.03
2022-08-07T13:59:13.248Z,4.05
2022-08-07T14:04:21.437Z,5.57
2022-08-07T14:10:14.897Z,3.92
2022-08-07T14:15:02.407Z,3.92
2022-08-07T14:20:41.260Z,7.10
2022-08-07T14:25:47.964Z,4.38
2022-08-07T14:30:53.099Z,5.93
2022-08-07T14:36:01.247Z,4.68
2022-08-07T14:41:12.394Z,4.35
2022-08-07T14:46:30.533Z,9.65
2022-08-07T14:52:04.791Z,3.08
2022-08-07T14:57:14.919Z,7.75
2022-08-07T15:07:50.831Z,11.82
2022-08-07T15:12:54.633Z,4.97
2022-08-07T15:18:14.420Z,6.57
2022-08-07T15:25:15.442Z,5.50
2022-08-07T15:30:06.372Z,6.15
2022-08-07T15:34:28.029Z,4.45
2022-08-07T15:45:09.424Z,6.82
2022-08-07T15:55:53.654Z,3.58
2022-08-07T16:01:08.986Z,2.75
2022-08-07T16:06:14.374Z,3.92
2022-08-07T16:11:40.184Z,3.97
2022-08-07T16:16:57.039Z,3.40
2022-08-07T16:22:17.924Z,5.78
2022-08-07T16:27:44.222Z,3.67
2022-08-07T16:32:54.615Z,3.42
2022-08-07T16:38:59.994Z,5.20
2022-08-07T16:44:57.269Z,4.55
2022-08-07T16:50:36.906Z,5.63
2022-08-07T16:55:53.795Z,2.28
2022-08-07T17:01:19.095Z,3.90
2022-08-07T17:06:58.094Z,4.38
2022-08-07T17:12:44.765Z,4.95
2022-08-07T17:17:50.468Z,3.85
2022-08-07T17:23:08.563Z,5.03
2022-08-07T17:28:22.410Z,5.28
2022-08-07T17:34:09.757Z,5.43
2022-08-07T17:39:10.479Z,5.32
2022-08-07T17:44:33.980Z,3.63
2022-08-07T17:49:58.642Z,6.45
2022-08-07T17:55:12.606Z,2.83
2022-08-07T18:00:32.975Z,2.67
2022-08-07T18:06:03.549Z,4.30
2022-08-07T18:12:17.962Z,3.50
2022-08-07T18:16:58.047Z,6.53
2022-08-07T18:22:15.241Z,4.10
2022-08-07T18:27:38.345Z,5.20
2022-08-07T18:33:22.281Z,6.10
2022-08-07T18:38:56.080Z,6.40
2022-08-07T18:44:12.863Z,2.10
2022-08-07T18:50:19.375Z,4.53
2022-08-07T18:54:58.941Z,5.30
2022-08-07T19:00:34.613Z,4.80
2022-08-07T19:06:03.266Z,4.05
2022-08-07T19:11:35.130Z,4.72
2022-08-07T19:17:04.826Z,3.97
2022-08-07T19:22:30.363Z,6.50
2022-08-07T19:28:56.497Z,6.30
2022-08-07T19:33:13.094Z,4.55
2022-08-07T19:38:21.110Z,3.20
2022-08-07T19:43:49.272Z,5.70
2022-08-07T19:49:06.423Z,5.15
2022-08-07T19:54:32.522Z,4.10
2022-08-07T19:59:40.919Z,4.20
2022-08-07T20:04:50.205Z,5.20
2022-08-07T20:10:35.528Z,3.55
2022-08-07T20:15:32.943Z,4.55
2022-08-07T20:20:43.691Z,5.10
2022-08-07T20:25:51.141Z,3.85
2022-08-07T20:30:58.649Z,4.97
2022-08-07T20:36:07.878Z,5.72
2022-08-07T20:41:14.981Z,3.80
2022-08-07T20:46:25.958Z,7.18
2022-08-07T20:51:40.656Z,5.43
2022-08-07T20:56:56.855Z,5.15
2022-08-07T21:02:04.626Z,4.40
2022-08-07T21:07:23.387Z,4.88
2022-08-07T21:12:31.397Z,4.35
2022-08-07T21:18:02.818Z,4.53
2022-08-07T21:23:09.086Z,4.57
2022-08-07T21:28:47.627Z,4.63
2022-08-07T21:33:46.163Z,6.70
2022-08-07T21:39:03.011Z,8.57
2022-08-07T21:44:37.240Z,6.43
2022-08-07T21:50:02.154Z,9.05
2022-08-07T21:55:29.932Z,6.93
2022-08-07T22:00:34.879Z,6.30
2022-08-07T22:05:49.936Z,4.18
2022-08-07T22:11:00.814Z,4.40
2022-08-07T22:16:45.175Z,6.32
2022-08-07T22:22:05.177Z,6.43
2022-08-07T22:27:15.976Z,11.75
2022-08-07T22:32:27.813Z,5.93
2022-08-07T22:38:01.942Z,8.23
2022-08-07T22:43:12.900Z,5.68
2022-08-07T22:48:54.928Z,5.25
2022-08-07T22:54:07.450Z,5.90
2022-08-07T22:59:50.275Z,5.85
2022-08-07T23:06:09.012Z,5.57
2022-08-07T23:10:42.542Z,4.82
2022-08-07T23:16:06.385Z,6.47
2022-08-07T23:21:29.868Z,5.47
2022-08-07T23:26:56.281Z,8.98
2022-08-07T23:34:19.635Z,6.85
2022-08-07T23:38:14.392Z,7.40
2022-08-07T23:43:51.291Z,9.05
2022-08-07T23:49:49.925Z,8.95
2022-08-07T23:55:00.801Z,11.05
